21kousinmaru — JD2168 — position and weather

sailwx.info

Track history (hours):
 
Tides and Currents Weather Stations Pressure Air Temp Water Temp Dewpoint Dewpoint Depression Visibility Wind Speed Wind Dir Waves Ship Positions

21kousinmaru

Last reported at 2016-Dec-02 06:24 UTC. Time now 2016-Dec-04 22:20 UTC.
Position N 35°13' E 139°46'.

Length 68 m; draft 4.6 m.

MMSI: 431501835.

Date/timePositionNaut miles runAvg speedWind from/ knotsBaromVisibWave heightAir tempDewpointWater temp
2016-Dec-02 06:24N 35°13' E 139°46'1011.9
2016-Dec-02 05:34N 35°23' E 139°42'10 9.9
2016-Dec-02 04:34N 35°30' E 139°51'1 0.7
2016-Dec-02 03:33N 35°30' E 139°51'4 0.7
2016-Dec-01 22:32N 35°29' E 139°55'0 0.0
2016-Dec-01 17:20N 35°29' E 139°55'911.3
2016-Dec-01 16:33N 35°24' E 139°46'1212.0
2016-Dec-01 15:33N 35°12' E 139°47'  
2016-Nov-28 05:19N 35°13' E 139°46'911.2
2016-Nov-28 04:33N 35°21' E 139°42'1211.7
2016-Nov-28 03:33N 35°30' E 139°51'3 0.6
2016-Nov-27 22:31N 35°29' E 139°55'0 0.1
2016-Nov-27 21:33N 35°29' E 139°55'0 0.0
2016-Nov-27 20:33N 35°29' E 139°55'0 0.0
2016-Nov-27 19:33N 35°29' E 139°55'0 0.0
2016-Nov-27 17:28N 35°29' E 139°55'0 0.0
2016-Nov-27 15:27N 35°29' E 139°55'7 7.6
2016-Nov-27 14:33N 35°26' E 139°48'1111.0
2016-Nov-27 13:33N 35°15' E 139°47'6 0.2
2016-Nov-26 07:20N 35°09' E 139°45'1012.4
2016-Nov-26 06:31N 35°19' E 139°44'1111.2
2016-Nov-26 05:33N 35°28' E 139°49'4 0.7
2016-Nov-25 23:33N 35°28' E 139°54'0 0.0
2016-Nov-25 22:30N 35°28' E 139°54'0 0.0
2016-Nov-25 21:33N 35°28' E 139°54'0 0.0
2016-Nov-25 20:33N 35°28' E 139°54'0 0.0
2016-Nov-25 19:30N 35°28' E 139°55'0 0.0
2016-Nov-25 18:25N 35°28' E 139°54'0 0.0
2016-Nov-25 17:33N 35°28' E 139°54'0 0.0
2016-Nov-25 16:27N 35°28' E 139°54'0 0.1
2016-Nov-25 15:33N 35°28' E 139°55'0 0.0
2016-Nov-25 14:31N 35°28' E 139°55'0 0.0
2016-Nov-25 13:23N 35°28' E 139°54'0 0.0
2016-Nov-25 11:07N 35°28' E 139°54'0 0.0
2016-Nov-25 10:33N 35°28' E 139°54'0 0.0
2016-Nov-25 09:06N 35°28' E 139°54'0 0.0
2016-Nov-25 07:33N 35°28' E 139°54'0 0.0
2016-Nov-25 06:33N 35°28' E 139°54'0 0.0
2016-Nov-25 04:18N 35°28' E 139°54'0 0.1
2016-Nov-25 03:32N 35°28' E 139°55'0 0.0
2016-Nov-25 02:24N 35°28' E 139°55'0 0.0
2016-Nov-25 01:13N 35°28' E 139°54'0 0.0
2016-Nov-25 00:29N 35°28' E 139°54'0 0.0
2016-Nov-24 23:31N 35°28' E 139°54'0 0.0
2016-Nov-24 22:30N 35°28' E 139°55'0 0.0
2016-Nov-24 21:27N 35°28' E 139°54'2 2.2
2016-Nov-24 20:31N 35°28' E 139°52'1111.8
2016-Nov-24 19:33N 35°19' E 139°44'1311.8
2016-Nov-24 18:26N 35°06' E 139°46'7 0.2
2016-Nov-23 11:29N 35°13' E 139°46'1112.2
2016-Nov-23 10:33N 35°24' E 139°43'11 1.3
2016-Nov-23 02:33N 35°28' E 139°55'0 0.0
2016-Nov-23 00:24N 35°28' E 139°55'0 0.0
2016-Nov-22 23:33N 35°28' E 139°55'0 0.0
2016-Nov-22 22:33N 35°28' E 139°55'0 0.0
2016-Nov-22 20:32N 35°28' E 139°55'0 0.0
2016-Nov-22 19:33N 35°28' E 139°55'15 7.4
2016-Nov-22 17:33N 35°15' E 139°47'  
Track history (hours):
 
Tides and Currents Weather Stations Pressure Air Temp Water Temp Dewpoint Dewpoint Depression Visibility Wind Speed Wind Dir Waves Ship Positions

21kousinmaru

Last reported at 2016-Dec-02 06:24 UTC. Time now 2016-Dec-04 22:20 UTC.
Position N 35°13' E 139°46'.

Length 68 m; draft 4.6 m.

MMSI: 431501835.

Date/timePositionNaut miles runAvg speedWind from/ knotsBaromVisibWave heightAir tempDewpointWater temp
2016-Dec-02 06:24N 35°13' E 139°46'1011.9
2016-Dec-02 05:34N 35°23' E 139°42'10 9.9
2016-Dec-02 04:34N 35°30' E 139°51'1 0.7
2016-Dec-02 03:33N 35°30' E 139°51'4 0.7
2016-Dec-01 22:32N 35°29' E 139°55'0 0.0
2016-Dec-01 17:20N 35°29' E 139°55'911.3
2016-Dec-01 16:33N 35°24' E 139°46'1212.0
2016-Dec-01 15:33N 35°12' E 139°47'  
2016-Nov-28 05:19N 35°13' E 139°46'911.2
2016-Nov-28 04:33N 35°21' E 139°42'1211.7
2016-Nov-28 03:33N 35°30' E 139°51'3 0.6
2016-Nov-27 22:31N 35°29' E 139°55'0 0.1
2016-Nov-27 21:33N 35°29' E 139°55'0 0.0
2016-Nov-27 20:33N 35°29' E 139°55'0 0.0
2016-Nov-27 19:33N 35°29' E 139°55'0 0.0
2016-Nov-27 17:28N 35°29' E 139°55'0 0.0
2016-Nov-27 15:27N 35°29' E 139°55'7 7.6
2016-Nov-27 14:33N 35°26' E 139°48'1111.0
2016-Nov-27 13:33N 35°15' E 139°47'6 0.2
2016-Nov-26 07:20N 35°09' E 139°45'1012.4
2016-Nov-26 06:31N 35°19' E 139°44'1111.2
2016-Nov-26 05:33N 35°28' E 139°49'4 0.7
2016-Nov-25 23:33N 35°28' E 139°54'0 0.0
2016-Nov-25 22:30N 35°28' E 139°54'0 0.0
2016-Nov-25 21:33N 35°28' E 139°54'0 0.0
2016-Nov-25 20:33N 35°28' E 139°54'0 0.0
2016-Nov-25 19:30N 35°28' E 139°55'0 0.0
2016-Nov-25 18:25N 35°28' E 139°54'0 0.0
2016-Nov-25 17:33N 35°28' E 139°54'0 0.0
2016-Nov-25 16:27N 35°28' E 139°54'0 0.1
2016-Nov-25 15:33N 35°28' E 139°55'0 0.0
2016-Nov-25 14:31N 35°28' E 139°55'0 0.0
2016-Nov-25 13:23N 35°28' E 139°54'0 0.0
2016-Nov-25 11:07N 35°28' E 139°54'0 0.0
2016-Nov-25 10:33N 35°28' E 139°54'0 0.0
2016-Nov-25 09:06N 35°28' E 139°54'0 0.0
2016-Nov-25 07:33N 35°28' E 139°54'0 0.0
2016-Nov-25 06:33N 35°28' E 139°54'0 0.0
2016-Nov-25 04:18N 35°28' E 139°54'0 0.1
2016-Nov-25 03:32N 35°28' E 139°55'0 0.0
2016-Nov-25 02:24N 35°28' E 139°55'0 0.0
2016-Nov-25 01:13N 35°28' E 139°54'0 0.0
2016-Nov-25 00:29N 35°28' E 139°54'0 0.0
2016-Nov-24 23:31N 35°28' E 139°54'0 0.0
2016-Nov-24 22:30N 35°28' E 139°55'0 0.0
2016-Nov-24 21:27N 35°28' E 139°54'2 2.2
2016-Nov-24 20:31N 35°28' E 139°52'1111.8
2016-Nov-24 19:33N 35°19' E 139°44'1311.8
2016-Nov-24 18:26N 35°06' E 139°46'7 0.2
2016-Nov-23 11:29N 35°13' E 139°46'1112.2
2016-Nov-23 10:33N 35°24' E 139°43'11 1.3
2016-Nov-23 02:33N 35°28' E 139°55'0 0.0
2016-Nov-23 00:24N 35°28' E 139°55'0 0.0
2016-Nov-22 23:33N 35°28' E 139°55'0 0.0
2016-Nov-22 22:33N 35°28' E 139°55'0 0.0
2016-Nov-22 20:32N 35°28' E 139°55'0 0.0
2016-Nov-22 19:33N 35°28' E 139°55'15 7.4
2016-Nov-22 17:33N 35°15' E 139°47'  

Dump ship's entire track history